Time;durP1;ratioP1;P1;durP2;ratioP2;P2;SDS_P1;SDS_P2;PMS_P1;PMS_P2;Temp;Humidity;BMP_temperature;BMP_pressure;BME280_temperature;BME280_humidity;BME280_pressure;Samples;Min_cycle;Max_cycle;Signal;HPM_P1;HPM_P2
2024/02/16 00:01:04;;;;;;;2.47;1.30;;;13.50;99.90;;;;;;4141992;28;20504;-67
2024/02/16 00:03:04;;;;;;;5.60;1.95;;;13.50;99.90;;;;;;4143385;28;20049;-67
2024/02/16 00:05:07;;;;;;;4.18;1.58;;;13.50;99.90;;;;;;4144106;28;20125;-68
2024/02/16 00:07:07;;;;;;;;;;;13.50;99.90;;;;;;4149140;28;20045;-67
2024/02/16 00:09:09;;;;;;;3.80;1.80;;;13.50;99.90;;;;;;4142172;28;19963;-67
2024/02/16 00:11:10;;;;;;;3.33;1.50;;;13.50;99.90;;;;;;4143082;28;20398;-67
2024/02/16 00:13:11;;;;;;;3.75;1.67;;;13.60;99.90;;;;;;4145783;28;20285;-67
2024/02/16 00:15:12;;;;;;;4.43;1.50;;;13.50;99.90;;;;;;4139894;28;20491;-67
2024/02/16 00:17:13;;;;;;;4.47;1.77;;;13.50;99.90;;;;;;4148374;28;20038;-67
2024/02/16 00:19:14;;;;;;;5.10;1.88;;;13.50;99.90;;;;;;4141554;28;20085;-67
2024/02/16 00:21:14;;;;;;;3.35;1.67;;;13.50;99.90;;;;;;4143642;28;20045;-67
2024/02/16 00:23:15;;;;;;;4.25;1.83;;;13.50;99.90;;;;;;4141089;28;20394;-67
2024/02/16 00:25:15;;;;;;;6.82;1.90;;;13.60;99.90;;;;;;4147642;28;20505;-67
2024/02/16 00:27:16;;;;;;;4.43;1.63;;;13.50;99.90;;;;;;4148086;28;20040;-67
2024/02/16 00:29:17;;;;;;;7.25;2.30;;;13.60;99.90;;;;;;4143836;28;20368;-68
2024/02/16 00:31:19;;;;;;;6.43;1.95;;;13.60;99.90;;;;;;4143017;28;20044;-69
2024/02/16 00:33:20;;;;;;;8.07;1.98;;;13.60;99.90;;;;;;4144319;28;20545;-69
2024/02/16 00:35:20;;;;;;;4.82;1.65;;;13.60;99.90;;;;;;4146218;28;20107;-69
2024/02/16 00:37:21;;;;;;;3.30;1.67;;;13.60;99.90;;;;;;4148601;28;20128;-69
2024/02/16 00:39:22;;;;;;;6.88;1.90;;;13.60;99.90;;;;;;4142209;28;20065;-69
2024/02/16 00:41:23;;;;;;;4.65;1.88;;;13.50;99.90;;;;;;4142600;28;20136;-69
2024/02/16 00:43:23;;;;;;;5.25;1.63;;;13.50;99.90;;;;;;4142330;28;20041;-69
2024/02/16 00:45:24;;;;;;;4.68;1.92;;;13.50;99.90;;;;;;4145757;28;20038;-69
2024/02/16 00:47:27;;;;;;;5.28;1.92;;;13.50;99.90;;;;;;4143901;28;20046;-69
2024/02/16 00:49:27;;;;;;;2.40;1.80;;;13.50;99.90;;;;;;4142184;28;20046;-69
2024/02/16 00:51:29;;;;;;;1.77;1.30;;;13.50;99.90;;;;;;4144277;28;20073;-69
2024/02/16 00:53:29;;;;;;;9.67;2.00;;;13.50;99.90;;;;;;4143754;28;20088;-69
2024/02/16 00:55:30;;;;;;;3.22;1.73;;;13.50;99.90;;;;;;4145455;28;20545;-69
2024/02/16 00:57:33;;;;;;;6.25;2.45;;;13.40;99.90;;;;;;4144360;28;20068;-69
2024/02/16 00:59:33;;;;;;;3.22;1.77;;;13.50;99.90;;;;;;4141417;28;20030;-69
2024/02/16 01:01:35;;;;;;;4.15;1.92;;;13.40;99.90;;;;;;4145671;28;20057;-60
2024/02/16 01:03:37;;;;;;;3.47;1.60;;;13.40;99.90;;;;;;4143333;28;20107;-60
2024/02/16 01:05:38;;;;;;;3.20;1.30;;;13.40;99.90;;;;;;4145313;28;20042;-60
2024/02/16 01:07:39;;;;;;;4.28;2.08;;;13.50;99.90;;;;;;4145180;28;20037;-61
2024/02/16 01:09:40;;;;;;;4.05;2.08;;;13.40;99.90;;;;;;4143383;28;20026;-61
2024/02/16 01:11:41;;;;;;;3.67;1.60;;;13.40;99.90;;;;;;4144335;28;20061;-61
2024/02/16 01:13:43;;;;;;;5.22;2.08;;;13.40;99.90;;;;;;4143479;28;20379;-61
2024/02/16 01:15:44;;;;;;;4.00;2.00;;;13.40;99.90;;;;;;4142409;28;20498;-60
2024/02/16 01:17:44;;;;;;;5.18;1.60;;;13.40;99.90;;;;;;4145545;28;20155;-60
2024/02/16 01:19:46;;;;;;;4.00;1.90;;;13.40;99.90;;;;;;4141783;28;20026;-60
2024/02/16 01:21:52;;;;;;;3.23;1.57;;;13.40;99.90;;;;;;4142004;28;20091;-61
2024/02/16 01:23:53;;;;;;;2.67;1.70;;;13.40;99.90;;;;;;4147184;28;20041;-60
2024/02/16 01:25:53;;;;;;;4.47;1.67;;;13.40;99.90;;;;;;4141719;28;20378;-60
2024/02/16 01:27:54;;;;;;;3.95;1.80;;;13.40;99.90;;;;;;4141938;28;20042;-60
2024/02/16 01:29:55;;;;;;;3.35;1.60;;;13.50;99.90;;;;;;4141786;28;20059;-61
2024/02/16 01:31:56;;;;;;;6.38;1.75;;;13.50;99.90;;;;;;4142721;28;20104;-61
2024/02/16 01:33:56;;;;;;;3.60;1.70;;;13.40;99.90;;;;;;4141761;28;20487;-61
2024/02/16 01:35:57;;;;;;;3.80;1.90;;;13.40;99.90;;;;;;4140902;28;20033;-61
2024/02/16 01:37:57;;;;;;;3.42;1.73;;;13.40;99.90;;;;;;4140030;28;20521;-61
2024/02/16 01:39:58;;;;;;;7.40;2.05;;;13.40;99.90;;;;;;4140623;28;20037;-68
2024/02/16 01:41:59;;;;;;;4.25;1.70;;;13.40;99.90;;;;;;4145529;28;20037;-67
2024/02/16 01:43:59;;;;;;;2.95;1.58;;;13.40;99.90;;;;;;4142086;28;20455;-67
2024/02/16 01:46:00;;;;;;;2.60;1.73;;;13.40;99.90;;;;;;4142558;28;20033;-67
2024/02/16 01:48:01;;;;;;;5.10;1.77;;;13.40;99.90;;;;;;4141860;28;20038;-67
2024/02/16 01:50:03;;;;;;;7.60;1.80;;;13.50;99.90;;;;;;4141543;28;20038;-67
2024/02/16 01:52:04;;;;;;;5.28;1.80;;;13.50;99.90;;;;;;4138838;28;20068;-67
2024/02/16 01:54:05;;;;;;;3.85;1.90;;;13.50;99.90;;;;;;4142809;28;20402;-67
2024/02/16 01:56:06;;;;;;;3.30;1.77;;;13.50;99.90;;;;;;4144458;28;20045;-67
2024/02/16 01:58:07;;;;;;;4.18;1.90;;;13.50;99.90;;;;;;4142090;28;20388;-67
2024/02/16 02:00:08;;;;;;;3.45;1.83;;;13.50;99.90;;;;;;4132533;28;20141;-67
2024/02/16 02:02:08;;;;;;;3.40;1.80;;;13.50;99.90;;;;;;4143336;28;20034;-67
2024/02/16 02:04:09;;;;;;;3.90;1.60;;;13.50;99.90;;;;;;4144091;28;20100;-67
2024/02/16 02:06:10;;;;;;;4.78;2.00;;;13.50;99.90;;;;;;4143441;28;20054;-67
2024/02/16 02:08:11;;;;;;;1.92;1.38;;;13.50;99.90;;;;;;4143034;28;20030;-67
2024/02/16 02:10:12;;;;;;;2.92;1.58;;;13.50;99.90;;;;;;4140708;28;20038;-69
2024/02/16 02:12:13;;;;;;;3.25;1.60;;;13.50;99.90;;;;;;4142836;28;20049;-69
2024/02/16 02:14:14;;;;;;;3.30;1.35;;;13.50;99.90;;;;;;4143281;28;20402;-69
2024/02/16 02:16:16;;;;;;;3.47;1.80;;;13.50;99.90;;;;;;4140349;28;20410;-69
2024/02/16 02:18:17;;;;;;;3.13;1.90;;;13.50;99.90;;;;;;4139105;28;20076;-69
2024/02/16 02:20:18;;;;;;;3.42;1.67;;;13.50;99.90;;;;;;4140121;28;20033;-69
2024/02/16 02:22:19;;;;;;;5.00;1.85;;;13.50;99.90;;;;;;4142675;28;20062;-69
2024/02/16 02:24:21;;;;;;;2.45;1.50;;;13.50;99.90;;;;;;4140412;28;20465;-69
2024/02/16 02:26:22;;;;;;;3.78;1.73;;;13.50;99.90;;;;;;4143392;28;20138;-69
2024/02/16 02:28:23;;;;;;;4.05;2.03;;;13.50;99.90;;;;;;4142763;28;20069;-69
2024/02/16 02:30:24;;;;;;;4.60;1.75;;;13.50;99.90;;;;;;4139122;28;20410;-69
2024/02/16 02:32:25;;;;;;;3.00;1.88;;;13.50;99.90;;;;;;4142936;28;20036;-69
2024/02/16 02:34:25;;;;;;;3.42;1.77;;;13.50;99.90;;;;;;4146801;28;21250;-68
2024/02/16 02:36:26;;;;;;;4.82;1.77;;;13.50;99.90;;;;;;4147675;28;20040;-68
2024/02/16 02:38:27;;;;;;;6.03;1.98;;;13.50;99.90;;;;;;4141975;28;20107;-68
2024/02/16 02:40:27;;;;;;;5.60;1.80;;;13.50;99.90;;;;;;4139694;28;20095;-68
2024/02/16 02:42:28;;;;;;;4.10;1.73;;;13.50;99.90;;;;;;4141851;28;20077;-69
2024/02/16 02:44:31;;;;;;;3.90;2.05;;;13.50;99.90;;;;;;4147055;28;20061;-69
2024/02/16 02:46:32;;;;;;;4.13;1.70;;;13.50;99.90;;;;;;4146341;28;20033;-68
2024/02/16 02:48:32;;;;;;;4.50;2.05;;;13.50;99.90;;;;;;4138383;28;20040;-69
2024/02/16 02:50:33;;;;;;;3.22;1.70;;;13.50;99.90;;;;;;4143893;28;20030;-69
2024/02/16 02:52:33;;;;;;;6.65;1.80;;;13.50;99.90;;;;;;4138507;28;20466;-69
2024/02/16 02:54:34;;;;;;;3.20;1.70;;;13.50;99.90;;;;;;4143618;28;20072;-69
2024/02/16 02:56:35;;;;;;;4.93;1.75;;;13.50;99.90;;;;;;4142544;28;20116;-69
2024/02/16 02:58:36;;;;;;;6.20;2.25;;;13.50;99.90;;;;;;4142377;28;20057;-69
2024/02/16 03:00:36;;;;;;;4.45;2.22;;;13.50;99.90;;;;;;4140878;28;20546;-69
2024/02/16 03:02:41;;;;;;;3.85;1.95;;;13.50;99.90;;;;;;4143583;28;20474;-69
2024/02/16 03:04:41;;;;;;;2.65;1.42;;;13.50;99.90;;;;;;4149893;28;20085;-69
2024/02/16 03:06:42;;;;;;;2.35;1.50;;;13.50;99.90;;;;;;4148824;28;20414;-69
2024/02/16 03:08:42;;;;;;;3.35;1.67;;;13.50;99.90;;;;;;4148175;28;20034;-68
2024/02/16 03:10:44;;;;;;;3.80;1.80;;;13.50;99.90;;;;;;4143994;28;20497;-69
2024/02/16 03:12:44;;;;;;;5.50;1.88;;;13.50;99.90;;;;;;4143365;28;20037;-69
2024/02/16 03:14:45;;;;;;;6.03;1.88;;;13.50;99.90;;;;;;4145452;28;20122;-69
2024/02/16 03:16:46;;;;;;;4.47;2.00;;;13.50;99.90;;;;;;4145876;28;20381;-68
2024/02/16 03:18:46;;;;;;;2.97;1.35;;;13.50;99.90;;;;;;4147290;28;20064;-69
2024/02/16 03:20:48;;;;;;;4.63;1.90;;;13.50;99.90;;;;;;4141121;28;20233;-69
2024/02/16 03:22:49;;;;;;;4.70;1.85;;;13.50;99.90;;;;;;4147494;28;20518;-69
2024/02/16 03:24:50;;;;;;;4.50;1.60;;;13.40;99.90;;;;;;4141327;28;20041;-69
2024/02/16 03:26:50;;;;;;;5.00;2.10;;;13.40;99.90;;;;;;4139605;28;20044;-69
2024/02/16 03:28:52;;;;;;;4.50;2.03;;;13.40;99.90;;;;;;4142344;28;20057;-69
2024/02/16 03:30:52;;;;;;;4.40;1.88;;;13.50;99.90;;;;;;4143873;28;20034;-69
2024/02/16 03:32:53;;;;;;;4.28;1.95;;;13.40;99.90;;;;;;4146984;28;20040;-69
2024/02/16 03:34:56;;;;;;;4.10;1.50;;;13.50;99.90;;;;;;4147119;28;20058;-69
2024/02/16 03:36:58;;;;;;;5.53;1.73;;;13.40;99.90;;;;;;4143474;28;20798;-69
2024/02/16 03:38:59;;;;;;;2.97;1.30;;;13.40;99.90;;;;;;4147059;28;20113;-69
2024/02/16 03:40:59;;;;;;;9.88;2.53;;;13.40;99.90;;;;;;4146233;28;20057;-69
2024/02/16 03:43:00;;;;;;;4.68;2.22;;;13.40;99.90;;;;;;4146313;28;20048;-69
2024/02/16 03:45:02;;;;;;;3.22;1.58;;;13.50;99.90;;;;;;4142351;28;20065;-69
2024/02/16 03:47:03;;;;;;;3.25;1.80;;;13.50;99.90;;;;;;4144935;28;20448;-69
2024/02/16 03:49:03;;;;;;;4.03;1.83;;;13.50;99.90;;;;;;4141832;28;20099;-69
2024/02/16 03:51:04;;;;;;;3.65;1.55;;;13.50;99.90;;;;;;4140552;28;20045;-69
2024/02/16 03:53:05;;;;;;;4.72;1.80;;;13.50;99.90;;;;;;4143106;28;20041;-69
2024/02/16 03:55:06;;;;;;;2.13;1.38;;;13.50;99.90;;;;;;4144180;28;20049;-69
2024/02/16 03:57:09;;;;;;;3.35;1.85;;;13.50;99.90;;;;;;4144917;28;20046;-69
2024/02/16 03:59:10;;;;;;;5.18;1.83;;;13.50;99.90;;;;;;4144067;28;20092;-68
2024/02/16 04:01:11;;;;;;;5.72;1.88;;;13.50;99.90;;;;;;4149276;28;20027;-68
2024/02/16 04:03:11;;;;;;;2.50;1.60;;;13.50;99.90;;;;;;4144471;28;20061;-69
2024/02/16 04:05:12;;;;;;;3.50;1.30;;;13.50;99.90;;;;;;4144127;28;20054;-69
2024/02/16 04:07:12;;;;;;;3.92;1.85;;;13.50;99.90;;;;;;4146570;28;20057;-68
2024/02/16 04:09:13;;;;;;;3.05;1.60;;;13.50;99.90;;;;;;4143431;28;20084;-68
2024/02/16 04:11:15;;;;;;;3.25;1.73;;;13.50;99.90;;;;;;4143536;28;20399;-69
2024/02/16 04:13:15;;;;;;;2.70;1.70;;;13.60;99.90;;;;;;4142738;28;20500;-68
2024/02/16 04:15:16;;;;;;;3.90;1.92;;;13.50;99.90;;;;;;4144724;28;20080;-68
2024/02/16 04:17:17;;;;;;;3.25;1.88;;;13.50;99.90;;;;;;4144718;28;20050;-68
2024/02/16 04:19:18;;;;;;;4.05;2.25;;;13.50;99.90;;;;;;4143420;28;20124;-68
2024/02/16 04:21:18;;;;;;;3.38;1.92;;;13.50;99.90;;;;;;4146037;28;20113;-68
2024/02/16 04:23:19;;;;;;;4.30;1.88;;;13.50;99.90;;;;;;4145552;28;20497;-68
2024/02/16 04:25:20;;;;;;;4.15;1.98;;;13.50;99.90;;;;;;4140990;28;20088;-68
2024/02/16 04:27:20;;;;;;;6.18;2.03;;;13.50;99.90;;;;;;4146955;28;20037;-68
2024/02/16 04:29:21;;;;;;;4.22;1.90;;;13.50;99.90;;;;;;4144259;28;20037;-69
2024/02/16 04:31:21;;;;;;;5.30;1.98;;;13.50;99.90;;;;;;4147463;28;20435;-68
2024/02/16 04:33:22;;;;;;;5.00;1.98;;;13.50;99.90;;;;;;4148904;28;20044;-68
2024/02/16 04:35:23;;;;;;;4.80;1.90;;;13.40;99.90;;;;;;4147090;28;20406;-69
2024/02/16 04:37:25;;;;;;;3.17;1.50;;;13.40;99.90;;;;;;4147565;28;20029;-68
2024/02/16 04:39:25;;;;;;;3.50;1.97;;;13.40;99.90;;;;;;4143643;28;20042;-68
2024/02/16 04:41:26;;;;;;;4.13;1.83;;;13.50;99.90;;;;;;4143878;28;20116;-68
2024/02/16 04:43:27;;;;;;;3.92;1.73;;;13.40;99.90;;;;;;4144042;28;20447;-68
2024/02/16 04:45:30;;;;;;;3.80;1.70;;;13.40;99.90;;;;;;4143003;28;20054;-68
2024/02/16 04:47:30;;;;;;;3.42;1.75;;;13.40;99.90;;;;;;4143729;28;20038;-69
2024/02/16 04:49:31;;;;;;;10.65;2.38;;;13.40;99.90;;;;;;4141573;28;20196;-68
2024/02/16 04:51:32;;;;;;;4.55;1.77;;;13.40;99.90;;;;;;4144755;28;20104;-68
2024/02/16 04:53:33;;;;;;;3.88;2.00;;;13.40;99.90;;;;;;4147471;28;20056;-69
2024/02/16 04:55:33;;;;;;;3.47;1.63;;;13.40;99.90;;;;;;4142272;28;20046;-68
2024/02/16 04:57:34;;;;;;;3.92;2.00;;;13.40;99.90;;;;;;4144824;28;20038;-68
2024/02/16 04:59:35;;;;;;;6.10;2.17;;;13.40;99.90;;;;;;4141791;28;20045;-68
2024/02/16 05:01:35;;;;;;;3.28;1.80;;;13.40;99.90;;;;;;4143734;28;20030;-68
2024/02/16 05:03:37;;;;;;;4.00;1.90;;;13.40;99.90;;;;;;4144591;28;20025;-68
2024/02/16 05:05:38;;;;;;;4.13;1.85;;;13.30;99.90;;;;;;4143036;28;20054;-68
2024/02/16 05:07:38;;;;;;;3.75;1.92;;;13.40;99.90;;;;;;4143518;28;20049;-68
2024/02/16 05:09:39;;;;;;;4.70;2.15;;;13.40;99.90;;;;;;4143183;28;20471;-68
2024/02/16 05:11:40;;;;;;;3.78;1.60;;;13.40;99.90;;;;;;4140926;28;20041;-61
2024/02/16 05:13:42;;;;;;;4.30;2.00;;;13.40;99.90;;;;;;4136596;28;20034;-61
2024/02/16 05:15:43;;;;;;;3.65;1.90;;;13.40;99.90;;;;;;4145352;28;20129;-61
2024/02/16 05:17:51;;;;;;;6.78;2.20;;;13.40;99.90;;;;;;4145483;28;20117;-60
2024/02/16 05:19:51;;;;;;;3.80;2.08;;;13.40;99.90;;;;;;4140412;28;20452;-60
2024/02/16 05:21:52;;;;;;;2.67;1.52;;;13.30;99.90;;;;;;4144338;28;20034;-60
2024/02/16 05:23:53;;;;;;;2.60;1.73;;;13.30;99.90;;;;;;4141624;28;20117;-60
2024/02/16 05:25:54;;;;;;;4.68;1.98;;;13.30;99.90;;;;;;4139316;28;20087;-60
2024/02/16 05:27:54;;;;;;;4.65;2.03;;;13.30;99.90;;;;;;4141373;28;20034;-60
2024/02/16 05:29:55;;;;;;;6.47;1.80;;;13.30;99.90;;;;;;4140514;28;20041;-60
2024/02/16 05:31:56;;;;;;;5.32;1.95;;;13.30;99.90;;;;;;4142541;28;20727;-60
2024/02/16 05:33:56;;;;;;;5.50;2.15;;;13.40;99.90;;;;;;4145184;28;20474;-60
2024/02/16 05:35:58;;;;;;;3.63;1.85;;;13.30;99.90;;;;;;4142040;28;20038;-60
2024/02/16 05:38:06;;;;;;;5.10;1.60;;;13.30;99.90;;;;;;4142027;28;20407;-61
2024/02/16 05:40:18;;;;;;;4.63;1.95;;;13.30;99.90;;;;;;4141631;28;20037;-69
2024/02/16 05:42:22;;;;;;;3.20;1.90;;;13.30;99.90;;;;;;4142865;28;20034;-69
2024/02/16 05:44:22;;;;;;;3.40;1.92;;;13.30;99.90;;;;;;4144050;28;20330;-69
2024/02/16 05:46:23;;;;;;;3.72;1.63;;;13.30;99.90;;;;;;4140202;28;20450;-69
2024/02/16 05:48:26;;;;;;;3.08;1.60;;;13.30;99.90;;;;;;4141724;28;20042;-69
2024/02/16 05:50:27;;;;;;;4.50;2.10;;;13.40;99.90;;;;;;4138676;28;20471;-69
2024/02/16 05:52:30;;;;;;;3.83;2.00;;;13.30;99.90;;;;;;4141677;28;20109;-68
2024/02/16 05:54:30;;;;;;;3.72;1.88;;;13.30;99.90;;;;;;4141576;28;20036;-69
2024/02/16 05:56:34;;;;;;;5.72;2.00;;;13.30;99.90;;;;;;4141030;28;20125;-69
2024/02/16 05:58:34;;;;;;;3.42;1.70;;;13.30;99.90;;;;;;4139374;28;20454;-68
2024/02/16 06:00:35;;;;;;;6.55;1.95;;;13.30;99.90;;;;;;4138564;28;20164;-69
2024/02/16 06:02:36;;;;;;;4.90;1.90;;;13.30;99.90;;;;;;4140167;28;20053;-69
2024/02/16 06:04:38;;;;;;;4.25;1.80;;;13.30;99.90;;;;;;4141407;28;20038;-69
2024/02/16 06:06:39;;;;;;;4.77;1.97;;;13.30;99.90;;;;;;4141276;28;20257;-69
2024/02/16 06:08:39;;;;;;;3.88;1.67;;;13.30;99.90;;;;;;4140648;28;20285;-69
2024/02/16 06:10:41;;;;;;;5.05;2.00;;;13.40;99.90;;;;;;4139666;28;20082;-67
2024/02/16 06:12:42;;;;;;;5.53;2.13;;;13.30;99.90;;;;;;4138960;28;20038;-68
2024/02/16 06:14:42;;;;;;;3.88;1.83;;;13.40;99.90;;;;;;4141200;28;20485;-69
2024/02/16 06:16:43;;;;;;;2.85;1.85;;;13.40;99.90;;;;;;4141073;28;20089;-68
2024/02/16 06:18:44;;;;;;;4.00;1.92;;;13.40;99.90;;;;;;4141489;28;20448;-68
2024/02/16 06:20:45;;;;;;;3.50;1.92;;;13.40;99.90;;;;;;4141259;28;20092;-68
2024/02/16 06:22:45;;;;;;;4.30;1.70;;;13.40;99.90;;;;;;4143108;28;20421;-69
2024/02/16 06:24:46;;;;;;;3.45;2.05;;;13.40;99.90;;;;;;4141804;28;20072;-69
2024/02/16 06:26:48;;;;;;;4.78;2.03;;;13.40;99.90;;;;;;4140521;28;20060;-69
2024/02/16 06:28:48;;;;;;;4.85;2.00;;;13.40;99.90;;;;;;4139916;28;20038;-65
2024/02/16 06:30:49;;;;;;;4.20;1.95;;;13.40;99.90;;;;;;4140097;28;20501;-67
2024/02/16 06:32:49;;;;;;;3.53;2.00;;;13.40;99.90;;;;;;4135243;28;20057;-67
2024/02/16 06:34:50;;;;;;;5.15;2.63;;;13.40;99.90;;;;;;4140936;28;20069;-65
2024/02/16 06:36:50;;;;;;;3.50;2.20;;;13.40;99.90;;;;;;4141124;28;20033;-65
2024/02/16 06:38:51;;;;;;;5.53;2.10;;;13.40;99.90;;;;;;4143708;28;20061;-65
2024/02/16 06:40:52;;;;;;;3.75;2.17;;;13.40;99.90;;;;;;4143957;28;20050;-74
2024/02/16 06:42:54;;;;;;;2.38;1.83;;;13.40;99.90;;;;;;4142032;28;20483;-74
2024/02/16 06:44:54;;;;;;;4.90;2.40;;;13.40;99.90;;;;;;4137605;28;20033;-75
2024/02/16 06:46:55;;;;;;;4.05;2.17;;;13.40;99.90;;;;;;4145236;28;20557;-75
2024/02/16 06:48:58;;;;;;;3.53;2.00;;;13.50;99.90;;;;;;4142777;28;20523;-74
2024/02/16 06:50:59;;;;;;;4.75;2.08;;;13.40;99.90;;;;;;4142337;28;20070;-70
2024/02/16 06:52:59;;;;;;;4.13;2.05;;;13.50;99.90;;;;;;4136202;28;20034;-72
2024/02/16 06:55:00;;;;;;;4.57;1.90;;;13.40;99.90;;;;;;4138063;28;20487;-73
2024/02/16 06:57:01;;;;;;;3.92;1.85;;;13.50;99.90;;;;;;4145245;28;20054;-73
2024/02/16 06:59:01;;;;;;;3.60;2.03;;;13.50;99.90;;;;;;4142934;28;20474;-74
2024/02/16 07:01:03;;;;;;;4.10;2.05;;;13.50;99.90;;;;;;4141216;28;20046;-66
2024/02/16 07:03:04;;;;;;;7.90;2.15;;;13.50;99.90;;;;;;4144381;28;20042;-66
2024/02/16 07:05:05;;;;;;;4.13;1.90;;;13.50;99.90;;;;;;4140655;28;20049;-66
2024/02/16 07:07:06;;;;;;;2.38;1.48;;;13.50;99.90;;;;;;4139953;28;20038;-65
2024/02/16 07:09:07;;;;;;;3.90;1.88;;;13.50;99.90;;;;;;4137446;28;20424;-65
2024/02/16 07:11:11;;;;;;;4.07;1.77;;;13.50;99.90;;;;;;4137303;28;20490;-66
2024/02/16 07:13:11;;;;;;;2.58;1.60;;;13.60;99.90;;;;;;4138371;28;20517;-65
2024/02/16 07:15:12;;;;;;;2.95;1.70;;;13.60;99.90;;;;;;4140608;28;20046;-66
2024/02/16 07:17:13;;;;;;;4.97;1.92;;;13.60;99.90;;;;;;4140808;28;20030;-66
2024/02/16 07:19:13;;;;;;;3.85;1.73;;;13.60;99.90;;;;;;4140321;28;20045;-65
2024/02/16 07:21:14;;;;;;;4.60;1.90;;;13.60;99.90;;;;;;4138899;28;20609;-66
2024/02/16 07:23:15;;;;;;;4.15;2.20;;;13.70;99.90;;;;;;4140198;28;20076;-66
2024/02/16 07:25:15;;;;;;;3.55;1.92;;;13.70;99.90;;;;;;4137971;28;20068;-66
2024/02/16 07:27:17;;;;;;;3.05;1.95;;;13.70;99.90;;;;;;4136402;28;20514;-65
2024/02/16 07:29:17;;;;;;;4.50;2.03;;;13.70;99.90;;;;;;4139653;28;20034;-66
2024/02/16 07:31:18;;;;;;;4.55;2.00;;;13.70;99.90;;;;;;4139669;28;20505;-66
2024/02/16 07:33:19;;;;;;;4.25;1.80;;;13.70;99.90;;;;;;4139712;28;20038;-66
2024/02/16 07:35:21;;;;;;;5.13;2.33;;;13.70;99.90;;;;;;4141408;28;20501;-66
2024/02/16 07:37:21;;;;;;;5.50;2.15;;;13.80;99.90;;;;;;4137213;28;20042;-66
2024/02/16 07:39:23;;;;;;;2.95;1.90;;;13.80;99.90;;;;;;4137585;28;20073;-66
2024/02/16 07:41:24;;;;;;;3.10;1.95;;;13.80;99.90;;;;;;4131924;28;20042;-66
2024/02/16 07:43:27;;;;;;;2.47;1.55;;;13.80;99.90;;;;;;4139825;28;20548;-66
2024/02/16 07:45:28;;;;;;;7.80;2.33;;;13.80;99.90;;;;;;4138742;28;20065;-66
2024/02/16 07:47:28;;;;;;;4.47;2.20;;;13.90;99.90;;;;;;4141130;28;20166;-66
2024/02/16 07:49:29;;;;;;;3.47;1.95;;;13.90;99.90;;;;;;4135103;28;20057;-65
2024/02/16 07:51:30;;;;;;;4.65;2.05;;;13.90;99.90;;;;;;4133399;28;20370;-66
2024/02/16 07:53:31;;;;;;;3.80;2.40;;;13.90;99.90;;;;;;4139373;28;20117;-65
2024/02/16 07:55:31;;;;;;;2.28;1.50;;;14.00;99.90;;;;;;4139583;28;20517;-65
2024/02/16 07:57:32;;;;;;;2.35;1.65;;;14.00;99.90;;;;;;4134400;28;20431;-65
2024/02/16 07:59:33;;;;;;;4.88;2.22;;;14.10;99.90;;;;;;4130968;28;20097;-74
2024/02/16 08:01:33;;;;;;;3.67;2.05;;;14.00;99.90;;;;;;4138367;28;20048;-60
2024/02/16 08:03:34;;;;;;;5.13;2.28;;;14.00;99.90;;;;;;4138846;28;20042;-60
2024/02/16 08:05:35;;;;;;;3.15;2.00;;;14.00;99.90;;;;;;4139050;28;20054;-60
2024/02/16 08:07:35;;;;;;;6.03;2.47;;;14.10;99.90;;;;;;4142802;28;20041;-60
2024/02/16 08:09:36;;;;;;;5.32;2.25;;;14.10;99.90;;;;;;4140344;28;20532;-59
2024/02/16 08:11:36;;;;;;;4.63;2.53;;;14.10;99.90;;;;;;4135476;28;20160;-60
2024/02/16 08:13:37;;;;;;;4.25;2.40;;;14.10;99.90;;;;;;4138660;28;20034;-60
2024/02/16 08:15:38;;;;;;;3.65;2.17;;;14.10;99.90;;;;;;4139899;28;21275;-60
2024/02/16 08:17:39;;;;;;;7.03;2.60;;;14.10;99.90;;;;;;4139643;28;20058;-59
2024/02/16 08:19:40;;;;;;;5.00;2.28;;;14.20;99.90;;;;;;4139341;28;20456;-65
2024/02/16 08:21:40;;;;;;;5.57;2.42;;;14.20;99.90;;;;;;4140530;28;20030;-60
2024/02/16 08:23:41;;;;;;;4.63;1.98;;;14.20;99.90;;;;;;4140660;28;20061;-60
2024/02/16 08:25:42;;;;;;;5.43;2.40;;;14.20;99.90;;;;;;4139681;28;20084;-60
2024/02/16 08:27:42;;;;;;;4.82;2.10;;;14.20;99.90;;;;;;4140219;28;20445;-60
2024/02/16 08:29:43;;;;;;;4.57;2.30;;;14.30;99.90;;;;;;4139537;28;20533;-59
2024/02/16 08:31:44;;;;;;;5.32;2.30;;;14.30;99.90;;;;;;4139924;28;20034;-60
2024/02/16 08:33:46;;;;;;;5.38;2.80;;;14.30;99.90;;;;;;4140929;28;20544;-63
2024/02/16 08:35:47;;;;;;;4.35;2.10;;;14.30;99.90;;;;;;4136228;28;20520;-59
2024/02/16 08:37:47;;;;;;;5.10;2.15;;;14.40;99.90;;;;;;4133454;28;20066;-60
2024/02/16 08:39:48;;;;;;;6.30;2.42;;;14.40;99.90;;;;;;4138050;28;20548;-60
2024/02/16 08:41:49;;;;;;;5.65;2.38;;;14.40;99.90;;;;;;4138925;28;20413;-60
2024/02/16 08:43:49;;;;;;;5.75;2.28;;;14.40;99.90;;;;;;4137776;28;20084;-59
2024/02/16 08:45:50;;;;;;;5.97;2.63;;;14.40;99.90;;;;;;4138683;28;20953;-60
2024/02/16 08:47:50;;;;;;;4.15;2.03;;;14.40;99.90;;;;;;4138438;28;20041;-60
2024/02/16 08:49:51;;;;;;;6.20;2.15;;;14.50;99.90;;;;;;4136952;28;20240;-60
2024/02/16 08:51:52;;;;;;;5.57;2.35;;;14.50;99.90;;;;;;4137704;28;20038;-60
2024/02/16 08:53:52;;;;;;;5.25;2.03;;;14.50;99.90;;;;;;4134237;28;20065;-60
2024/02/16 08:55:53;;;;;;;4.72;2.55;;;14.50;99.90;;;;;;4136608;28;20080;-59
2024/02/16 08:57:54;;;;;;;4.85;2.40;;;14.50;99.90;;;;;;4137646;28;20610;-60
2024/02/16 08:59:56;;;;;;;6.35;2.92;;;14.50;99.90;;;;;;4137734;28;20119;-59
2024/02/16 09:01:58;;;;;;;5.50;2.13;;;14.50;99.90;;;;;;4137593;28;20044;-59
2024/02/16 09:03:59;;;;;;;5.32;2.70;;;14.50;99.90;;;;;;4137993;28;20038;-59
2024/02/16 09:05:59;;;;;;;6.25;2.35;;;14.50;99.90;;;;;;4137426;28;20512;-60
2024/02/16 09:08:01;;;;;;;9.73;2.20;;;14.50;99.90;;;;;;4137957;28;20033;-60
2024/02/16 09:10:04;;;;;;;6.40;2.25;;;14.50;99.90;;;;;;4137773;28;20572;-60
2024/02/16 09:12:05;;;;;;;4.60;2.15;;;14.60;99.90;;;;;;4140355;28;20132;-60
2024/02/16 09:14:05;;;;;;;4.60;2.30;;;14.60;99.90;;;;;;4139188;28;20275;-60
2024/02/16 09:16:07;;;;;;;5.15;2.42;;;14.60;99.90;;;;;;4136389;28;20050;-60
2024/02/16 09:18:07;;;;;;;5.13;2.10;;;14.60;99.90;;;;;;4138236;28;21081;-59
2024/02/16 09:20:08;;;;;;;6.47;2.30;;;14.60;99.90;;;;;;4138564;28;20058;-65
2024/02/16 09:22:09;;;;;;;4.32;2.00;;;14.60;99.90;;;;;;4138857;28;20037;-66
2024/02/16 09:24:10;;;;;;;3.45;2.30;;;14.60;99.90;;;;;;4137869;28;20445;-66
2024/02/16 09:26:11;;;;;;;6.75;2.40;;;14.60;99.90;;;;;;4136842;28;20034;-66
2024/02/16 09:28:12;;;;;;;5.00;2.13;;;14.70;99.90;;;;;;4138365;28;20042;-66
2024/02/16 09:30:13;;;;;;;8.95;2.55;;;14.70;99.90;;;;;;4137569;28;20057;-66
2024/02/16 09:32:13;;;;;;;3.75;2.20;;;14.70;99.90;;;;;;4139297;28;20398;-65
2024/02/16 09:34:14;;;;;;;6.57;2.10;;;14.70;99.90;;;;;;4139686;28;20029;-66
2024/02/16 09:36:14;;;;;;;6.03;2.30;;;14.70;99.90;;;;;;4138576;28;20042;-65
2024/02/16 09:38:15;;;;;;;3.78;2.17;;;14.80;99.90;;;;;;4139284;28;20809;-65
2024/02/16 09:40:18;;;;;;;6.75;2.65;;;14.80;99.90;;;;;;4139670;28;20391;-66
2024/02/16 09:42:18;;;;;;;;;;;14.80;99.90;;;;;;4141385;28;20116;-65
2024/02/16 09:44:21;;;;;;;6.43;2.60;;;14.90;99.90;;;;;;4139099;28;19945;-66
2024/02/16 09:46:23;;;;;;;3.60;2.08;;;14.90;99.90;;;;;;4137388;28;20034;-66
2024/02/16 09:48:29;;;;;;;3.53;2.17;;;15.00;99.90;;;;;;4139302;28;20049;-65
2024/02/16 09:50:30;;;;;;;4.97;2.35;;;15.00;99.90;;;;;;4136155;28;20045;-65
2024/02/16 09:52:31;;;;;;;5.10;2.33;;;15.00;99.90;;;;;;4138427;28;20042;-65
2024/02/16 09:54:35;;;;;;;4.05;2.08;;;15.00;99.90;;;;;;4138874;28;20569;-66
2024/02/16 09:56:36;;;;;;;3.97;2.30;;;15.00;99.90;;;;;;4139525;28;20042;-66
2024/02/16 09:58:36;;;;;;;5.55;2.30;;;15.10;99.90;;;;;;4139296;28;20085;-65
2024/02/16 10:00:37;;;;;;;5.93;2.83;;;15.20;99.90;;;;;;4136125;28;20042;-65
2024/02/16 10:02:45;;;;;;;6.03;2.58;;;15.10;99.90;;;;;;4135342;28;20042;-65
2024/02/16 10:04:46;;;;;;;3.78;2.35;;;15.20;99.90;;;;;;4137476;28;20046;-66
2024/02/16 10:06:50;;;;;;;6.15;2.67;;;15.20;99.90;;;;;;4135660;28;20112;-65
2024/02/16 10:08:52;;;;;;;6.93;2.75;;;15.20;99.90;;;;;;4139011;28;20033;-65
2024/02/16 10:11:01;;;;;;;5.47;2.38;;;15.20;99.90;;;;;;4135508;28;20410;-65
2024/02/16 10:13:05;;;;;;;7.18;2.53;;;15.20;99.90;;;;;;4140765;28;20609;-65
2024/02/16 10:15:06;;;;;;;4.30;2.38;;;15.20;99.90;;;;;;4139065;28;20218;-65
2024/02/16 10:17:09;;;;;;;4.40;2.38;;;15.20;99.90;;;;;;4134839;28;20201;-66
2024/02/16 10:19:12;;;;;;;6.88;2.22;;;15.20;99.90;;;;;;4141502;28;20105;-65
2024/02/16 10:21:13;;;;;;;5.15;2.50;;;15.30;99.90;;;;;;4133708;28;20113;-66
2024/02/16 10:23:14;;;;;;;5.22;2.50;;;15.30;99.90;;;;;;4141501;28;20533;-66
2024/02/16 10:25:15;;;;;;;7.32;2.70;;;15.30;99.90;;;;;;4141154;28;20116;-66
2024/02/16 10:27:17;;;;;;;4.78;2.50;;;15.30;99.90;;;;;;4143142;28;20371;-66
2024/02/16 10:29:22;;;;;;;7.60;2.75;;;15.30;99.90;;;;;;4140544;28;20041;-66
2024/02/16 10:31:28;;;;;;;5.68;2.33;;;15.30;99.90;;;;;;4140600;28;20038;-73